sensor_id;sensor_type;location;lat;lon;timestamp;P1;durP1;ratioP1;P2;durP2;ratioP2
10657;SDS011;5377;43.276;26.930;2023-07-20T00:02:21;7.45;;;6.63;;
10657;SDS011;5377;43.276;26.930;2023-07-20T00:04:48;7.30;;;6.05;;
10657;SDS011;5377;43.276;26.930;2023-07-20T00:07:15;6.75;;;6.13;;
10657;SDS011;5377;43.276;26.930;2023-07-20T00:09:42;6.63;;;5.93;;
10657;SDS011;5377;43.276;26.930;2023-07-20T00:12:10;7.50;;;6.70;;
10657;SDS011;5377;43.276;26.930;2023-07-20T00:14:37;7.38;;;6.88;;
10657;SDS011;5377;43.276;26.930;2023-07-20T00:17:04;9.98;;;6.72;;
10657;SDS011;5377;43.276;26.930;2023-07-20T00:19:31;6.82;;;6.22;;
10657;SDS011;5377;43.276;26.930;2023-07-20T00:21:58;7.00;;;6.25;;
10657;SDS011;5377;43.276;26.930;2023-07-20T00:24:25;8.82;;;6.20;;
10657;SDS011;5377;43.276;26.930;2023-07-20T00:26:52;9.38;;;6.70;;
10657;SDS011;5377;43.276;26.930;2023-07-20T00:29:20;6.32;;;5.82;;
10657;SDS011;5377;43.276;26.930;2023-07-20T00:31:47;6.88;;;6.00;;
10657;SDS011;5377;43.276;26.930;2023-07-20T00:34:14;7.30;;;6.60;;
10657;SDS011;5377;43.276;26.930;2023-07-20T00:36:41;7.22;;;6.55;;
10657;SDS011;5377;43.276;26.930;2023-07-20T00:39:08;7.03;;;6.53;;
10657;SDS011;5377;43.276;26.930;2023-07-20T00:41:35;5.70;;;4.70;;
10657;SDS011;5377;43.276;26.930;2023-07-20T00:44:02;11.55;;;5.30;;
10657;SDS011;5377;43.276;26.930;2023-07-20T00:46:30;5.72;;;4.80;;
10657;SDS011;5377;43.276;26.930;2023-07-20T00:48:57;10.40;;;4.78;;
10657;SDS011;5377;43.276;26.930;2023-07-20T00:51:25;11.18;;;4.93;;
10657;SDS011;5377;43.276;26.930;2023-07-20T00:53:53;13.48;;;5.53;;
10657;SDS011;5377;43.276;26.930;2023-07-20T00:56:20;15.40;;;5.60;;
10657;SDS011;5377;43.276;26.930;2023-07-20T00:58:47;9.60;;;5.05;;
10657;SDS011;5377;43.276;26.930;2023-07-20T01:01:14;10.18;;;5.60;;
10657;SDS011;5377;43.276;26.930;2023-07-20T01:03:43;7.68;;;5.55;;
10657;SDS011;5377;43.276;26.930;2023-07-20T01:06:11;10.23;;;5.63;;
10657;SDS011;5377;43.276;26.930;2023-07-20T01:08:47;7.65;;;4.75;;
10657;SDS011;5377;43.276;26.930;2023-07-20T01:11:26;15.82;;;5.63;;
10657;SDS011;5377;43.276;26.930;2023-07-20T01:13:59;10.02;;;5.25;;
10657;SDS011;5377;43.276;26.930;2023-07-20T01:16:26;8.68;;;4.78;;
10657;SDS011;5377;43.276;26.930;2023-07-20T01:18:55;18.42;;;6.00;;
10657;SDS011;5377;43.276;26.930;2023-07-20T01:21:23;9.52;;;5.07;;
10657;SDS011;5377;43.276;26.930;2023-07-20T01:24:13;14.20;;;4.68;;
10657;SDS011;5377;43.276;26.930;2023-07-20T01:27:00;19.92;;;5.85;;
10657;SDS011;5377;43.276;26.930;2023-07-20T01:30:02;21.25;;;5.85;;
10657;SDS011;5377;43.276;26.930;2023-07-20T01:32:42;20.33;;;6.40;;
10657;SDS011;5377;43.276;26.930;2023-07-20T01:35:11;16.95;;;5.03;;
10657;SDS011;5377;43.276;26.930;2023-07-20T01:37:40;19.60;;;5.43;;
10657;SDS011;5377;43.276;26.930;2023-07-20T01:40:09;16.13;;;4.88;;
10657;SDS011;5377;43.276;26.930;2023-07-20T01:42:37;24.70;;;6.30;;
10657;SDS011;5377;43.276;26.930;2023-07-20T01:45:04;15.73;;;4.68;;
10657;SDS011;5377;43.276;26.930;2023-07-20T01:47:32;20.60;;;5.25;;
10657;SDS011;5377;43.276;26.930;2023-07-20T01:50:00;16.40;;;4.75;;
10657;SDS011;5377;43.276;26.930;2023-07-20T01:52:27;11.88;;;4.63;;
10657;SDS011;5377;43.276;26.930;2023-07-20T01:54:54;16.55;;;5.95;;
10657;SDS011;5377;43.276;26.930;2023-07-20T01:57:21;19.45;;;4.82;;
10657;SDS011;5377;43.276;26.930;2023-07-20T01:59:48;18.20;;;4.65;;
10657;SDS011;5377;43.276;26.930;2023-07-20T02:02:15;19.88;;;4.95;;
10657;SDS011;5377;43.276;26.930;2023-07-20T02:04:42;16.48;;;5.10;;
10657;SDS011;5377;43.276;26.930;2023-07-20T02:07:10;12.55;;;4.35;;
10657;SDS011;5377;43.276;26.930;2023-07-20T02:09:37;13.73;;;5.15;;
10657;SDS011;5377;43.276;26.930;2023-07-20T02:12:04;10.70;;;3.75;;
10657;SDS011;5377;43.276;26.930;2023-07-20T02:14:31;8.18;;;3.80;;
10657;SDS011;5377;43.276;26.930;2023-07-20T02:16:58;12.13;;;5.20;;
10657;SDS011;5377;43.276;26.930;2023-07-20T02:19:26;6.90;;;3.42;;
10657;SDS011;5377;43.276;26.930;2023-07-20T02:21:53;8.15;;;3.20;;
10657;SDS011;5377;43.276;26.930;2023-07-20T02:24:21;9.52;;;4.68;;
10657;SDS011;5377;43.276;26.930;2023-07-20T02:26:48;14.15;;;3.67;;
10657;SDS011;5377;43.276;26.930;2023-07-20T02:29:15;11.20;;;4.30;;
10657;SDS011;5377;43.276;26.930;2023-07-20T02:31:42;13.88;;;4.80;;
10657;SDS011;5377;43.276;26.930;2023-07-20T02:34:09;13.25;;;5.05;;
10657;SDS011;5377;43.276;26.930;2023-07-20T02:36:36;12.07;;;4.15;;
10657;SDS011;5377;43.276;26.930;2023-07-20T02:39:03;6.72;;;3.45;;
10657;SDS011;5377;43.276;26.930;2023-07-20T02:41:32;6.47;;;3.05;;
10657;SDS011;5377;43.276;26.930;2023-07-20T02:43:59;12.43;;;3.13;;
10657;SDS011;5377;43.276;26.930;2023-07-20T02:46:27;11.57;;;5.10;;
10657;SDS011;5377;43.276;26.930;2023-07-20T02:48:55;13.73;;;5.22;;
10657;SDS011;5377;43.276;26.930;2023-07-20T02:51:22;5.07;;;2.85;;
10657;SDS011;5377;43.276;26.930;2023-07-20T02:53:48;11.45;;;2.90;;
10657;SDS011;5377;43.276;26.930;2023-07-20T02:56:15;7.13;;;3.90;;
10657;SDS011;5377;43.276;26.930;2023-07-20T02:58:44;8.20;;;3.35;;
10657;SDS011;5377;43.276;26.930;2023-07-20T03:01:12;13.18;;;4.00;;
10657;SDS011;5377;43.276;26.930;2023-07-20T03:03:39;9.95;;;3.17;;
10657;SDS011;5377;43.276;26.930;2023-07-20T03:06:11;7.43;;;2.58;;
10657;SDS011;5377;43.276;26.930;2023-07-20T03:08:39;8.43;;;3.28;;
10657;SDS011;5377;43.276;26.930;2023-07-20T03:11:12;9.32;;;3.15;;
10657;SDS011;5377;43.276;26.930;2023-07-20T03:13:40;9.90;;;3.30;;
10657;SDS011;5377;43.276;26.930;2023-07-20T03:16:08;8.55;;;3.65;;
10657;SDS011;5377;43.276;26.930;2023-07-20T03:18:36;10.10;;;4.00;;
10657;SDS011;5377;43.276;26.930;2023-07-20T03:21:03;9.57;;;4.45;;
10657;SDS011;5377;43.276;26.930;2023-07-20T03:23:30;10.45;;;3.70;;
10657;SDS011;5377;43.276;26.930;2023-07-20T03:25:56;10.13;;;3.30;;
10657;SDS011;5377;43.276;26.930;2023-07-20T03:28:23;18.27;;;4.20;;
10657;SDS011;5377;43.276;26.930;2023-07-20T03:30:52;7.55;;;3.33;;
10657;SDS011;5377;43.276;26.930;2023-07-20T03:33:21;16.73;;;3.65;;
10657;SDS011;5377;43.276;26.930;2023-07-20T03:35:48;8.65;;;2.67;;
10657;SDS011;5377;43.276;26.930;2023-07-20T03:38:15;9.07;;;3.13;;
10657;SDS011;5377;43.276;26.930;2023-07-20T03:40:48;7.53;;;3.05;;
10657;SDS011;5377;43.276;26.930;2023-07-20T03:43:16;6.47;;;3.35;;
10657;SDS011;5377;43.276;26.930;2023-07-20T03:45:43;8.10;;;3.50;;
10657;SDS011;5377;43.276;26.930;2023-07-20T03:48:10;10.18;;;3.47;;
10657;SDS011;5377;43.276;26.930;2023-07-20T03:50:39;19.50;;;6.32;;
10657;SDS011;5377;43.276;26.930;2023-07-20T03:53:05;12.63;;;4.50;;
10657;SDS011;5377;43.276;26.930;2023-07-20T03:55:32;11.60;;;4.28;;
10657;SDS011;5377;43.276;26.930;2023-07-20T03:57:59;15.90;;;5.03;;
10657;SDS011;5377;43.276;26.930;2023-07-20T04:00:26;8.95;;;3.97;;
10657;SDS011;5377;43.276;26.930;2023-07-20T04:02:53;8.70;;;3.95;;
10657;SDS011;5377;43.276;26.930;2023-07-20T04:05:20;13.27;;;3.47;;
10657;SDS011;5377;43.276;26.930;2023-07-20T04:07:48;10.35;;;4.05;;
10657;SDS011;5377;43.276;26.930;2023-07-20T04:10:16;13.07;;;4.70;;
10657;SDS011;5377;43.276;26.930;2023-07-20T04:12:43;11.57;;;3.25;;
10657;SDS011;5377;43.276;26.930;2023-07-20T04:15:12;9.93;;;3.67;;
10657;SDS011;5377;43.276;26.930;2023-07-20T04:17:39;10.85;;;3.63;;
10657;SDS011;5377;43.276;26.930;2023-07-20T04:20:07;10.07;;;4.07;;
10657;SDS011;5377;43.276;26.930;2023-07-20T04:22:34;4.32;;;2.85;;
10657;SDS011;5377;43.276;26.930;2023-07-20T04:25:03;8.50;;;3.50;;
10657;SDS011;5377;43.276;26.930;2023-07-20T04:27:30;9.65;;;3.20;;
10657;SDS011;5377;43.276;26.930;2023-07-20T04:29:57;9.35;;;3.80;;
10657;SDS011;5377;43.276;26.930;2023-07-20T04:32:25;17.58;;;4.85;;
10657;SDS011;5377;43.276;26.930;2023-07-20T04:34:52;14.50;;;4.57;;
10657;SDS011;5377;43.276;26.930;2023-07-20T04:37:18;9.63;;;4.35;;
10657;SDS011;5377;43.276;26.930;2023-07-20T04:39:45;31.10;;;7.68;;
10657;SDS011;5377;43.276;26.930;2023-07-20T04:42:13;14.55;;;5.07;;
10657;SDS011;5377;43.276;26.930;2023-07-20T04:44:40;12.52;;;5.03;;
10657;SDS011;5377;43.276;26.930;2023-07-20T04:47:07;20.88;;;6.47;;
10657;SDS011;5377;43.276;26.930;2023-07-20T04:49:34;13.82;;;4.65;;
10657;SDS011;5377;43.276;26.930;2023-07-20T04:52:01;14.80;;;4.53;;
10657;SDS011;5377;43.276;26.930;2023-07-20T04:54:29;10.88;;;4.03;;
10657;SDS011;5377;43.276;26.930;2023-07-20T04:56:56;12.63;;;5.13;;
10657;SDS011;5377;43.276;26.930;2023-07-20T04:59:25;9.32;;;3.92;;
10657;SDS011;5377;43.276;26.930;2023-07-20T05:01:52;9.52;;;3.63;;
10657;SDS011;5377;43.276;26.930;2023-07-20T05:04:18;24.13;;;5.30;;
10657;SDS011;5377;43.276;26.930;2023-07-20T05:06:45;14.52;;;4.57;;
10657;SDS011;5377;43.276;26.930;2023-07-20T05:09:12;17.77;;;4.50;;
10657;SDS011;5377;43.276;26.930;2023-07-20T05:11:39;22.98;;;4.05;;
10657;SDS011;5377;43.276;26.930;2023-07-20T05:14:06;13.90;;;4.22;;
10657;SDS011;5377;43.276;26.930;2023-07-20T05:16:35;10.25;;;3.45;;
10657;SDS011;5377;43.276;26.930;2023-07-20T05:19:02;6.78;;;2.88;;
10657;SDS011;5377;43.276;26.930;2023-07-20T05:21:29;11.05;;;3.20;;
10657;SDS011;5377;43.276;26.930;2023-07-20T05:23:56;10.27;;;3.83;;
10657;SDS011;5377;43.276;26.930;2023-07-20T05:26:22;14.57;;;3.60;;
10657;SDS011;5377;43.276;26.930;2023-07-20T05:28:49;10.32;;;2.95;;
10657;SDS011;5377;43.276;26.930;2023-07-20T05:31:16;13.65;;;2.97;;
10657;SDS011;5377;43.276;26.930;2023-07-20T05:33:44;8.05;;;2.80;;
10657;SDS011;5377;43.276;26.930;2023-07-20T05:36:11;9.93;;;3.30;;
10657;SDS011;5377;43.276;26.930;2023-07-20T05:38:38;12.45;;;4.45;;
10657;SDS011;5377;43.276;26.930;2023-07-20T05:41:05;15.80;;;4.93;;
10657;SDS011;5377;43.276;26.930;2023-07-20T05:43:35;11.25;;;4.47;;
10657;SDS011;5377;43.276;26.930;2023-07-20T05:46:02;11.63;;;4.10;;
10657;SDS011;5377;43.276;26.930;2023-07-20T05:48:30;17.70;;;4.93;;
10657;SDS011;5377;43.276;26.930;2023-07-20T05:50:58;12.73;;;4.05;;
10657;SDS011;5377;43.276;26.930;2023-07-20T05:53:25;9.48;;;4.35;;
10657;SDS011;5377;43.276;26.930;2023-07-20T05:55:52;14.43;;;6.05;;
10657;SDS011;5377;43.276;26.930;2023-07-20T05:58:19;9.30;;;3.95;;
10657;SDS011;5377;43.276;26.930;2023-07-20T06:00:47;10.40;;;5.15;;
10657;SDS011;5377;43.276;26.930;2023-07-20T06:03:14;10.27;;;4.13;;
10657;SDS011;5377;43.276;26.930;2023-07-20T06:05:42;7.80;;;3.35;;
10657;SDS011;5377;43.276;26.930;2023-07-20T06:08:11;9.55;;;4.10;;
10657;SDS011;5377;43.276;26.930;2023-07-20T06:10:39;10.80;;;4.32;;
10657;SDS011;5377;43.276;26.930;2023-07-20T06:13:06;9.23;;;3.15;;
10657;SDS011;5377;43.276;26.930;2023-07-20T06:15:33;8.13;;;3.50;;
10657;SDS011;5377;43.276;26.930;2023-07-20T06:18:01;10.77;;;4.95;;
10657;SDS011;5377;43.276;26.930;2023-07-20T06:20:29;13.38;;;5.50;;
10657;SDS011;5377;43.276;26.930;2023-07-20T06:22:56;12.93;;;6.05;;
10657;SDS011;5377;43.276;26.930;2023-07-20T06:25:24;14.50;;;5.50;;
10657;SDS011;5377;43.276;26.930;2023-07-20T06:27:51;6.32;;;4.10;;
10657;SDS011;5377;43.276;26.930;2023-07-20T06:30:18;11.80;;;4.82;;
10657;SDS011;5377;43.276;26.930;2023-07-20T06:32:45;7.18;;;4.30;;
10657;SDS011;5377;43.276;26.930;2023-07-20T06:35:12;9.75;;;4.50;;
10657;SDS011;5377;43.276;26.930;2023-07-20T06:37:39;9.35;;;3.53;;
10657;SDS011;5377;43.276;26.930;2023-07-20T06:40:06;5.25;;;3.35;;
10657;SDS011;5377;43.276;26.930;2023-07-20T06:42:36;8.23;;;3.47;;
10657;SDS011;5377;43.276;26.930;2023-07-20T06:45:03;9.55;;;4.07;;
10657;SDS011;5377;43.276;26.930;2023-07-20T06:47:31;8.65;;;4.20;;
10657;SDS011;5377;43.276;26.930;2023-07-20T06:49:58;9.10;;;3.95;;
10657;SDS011;5377;43.276;26.930;2023-07-20T06:52:24;9.43;;;3.88;;
10657;SDS011;5377;43.276;26.930;2023-07-20T06:54:51;19.42;;;5.30;;
10657;SDS011;5377;43.276;26.930;2023-07-20T06:57:18;36.45;;;7.47;;
10657;SDS011;5377;43.276;26.930;2023-07-20T06:59:46;12.40;;;4.13;;
10657;SDS011;5377;43.276;26.930;2023-07-20T07:05:35;13.98;;;3.45;;
10657;SDS011;5377;43.276;26.930;2023-07-20T07:08:03;12.57;;;3.47;;
10657;SDS011;5377;43.276;26.930;2023-07-20T07:10:30;6.15;;;2.00;;
10657;SDS011;5377;43.276;26.930;2023-07-20T07:12:57;19.75;;;4.15;;
10657;SDS011;5377;43.276;26.930;2023-07-20T07:15:27;7.28;;;2.35;;
10657;SDS011;5377;43.276;26.930;2023-07-20T07:17:54;2.97;;;1.42;;
10657;SDS011;5377;43.276;26.930;2023-07-20T07:20:21;5.00;;;1.52;;
10657;SDS011;5377;43.276;26.930;2023-07-20T07:22:51;5.97;;;2.22;;
10657;SDS011;5377;43.276;26.930;2023-07-20T07:25:18;9.57;;;1.63;;
10657;SDS011;5377;43.276;26.930;2023-07-20T07:27:45;3.20;;;1.08;;
10657;SDS011;5377;43.276;26.930;2023-07-20T07:30:12;4.20;;;1.67;;
10657;SDS011;5377;43.276;26.930;2023-07-20T07:32:40;6.22;;;1.30;;
10657;SDS011;5377;43.276;26.930;2023-07-20T07:35:07;5.97;;;1.40;;
10657;SDS011;5377;43.276;26.930;2023-07-20T07:37:34;3.45;;;0.90;;
10657;SDS011;5377;43.276;26.930;2023-07-20T07:40:01;1.67;;;0.95;;
10657;SDS011;5377;43.276;26.930;2023-07-20T07:42:31;2.55;;;1.33;;
10657;SDS011;5377;43.276;26.930;2023-07-20T07:44:57;3.33;;;1.08;;
10657;SDS011;5377;43.276;26.930;2023-07-20T07:47:24;2.83;;;1.30;;
10657;SDS011;5377;43.276;26.930;2023-07-20T07:49:52;4.13;;;1.52;;
10657;SDS011;5377;43.276;26.930;2023-07-20T07:52:19;4.28;;;1.60;;
10657;SDS011;5377;43.276;26.930;2023-07-20T07:54:46;4.68;;;1.63;;
10657;SDS011;5377;43.276;26.930;2023-07-20T07:57:13;6.32;;;1.20;;
10657;SDS011;5377;43.276;26.930;2023-07-20T07:59:40;8.63;;;2.05;;
10657;SDS011;5377;43.276;26.930;2023-07-20T08:02:07;6.10;;;1.75;;
10657;SDS011;5377;43.276;26.930;2023-07-20T08:04:35;4.18;;;1.38;;
10657;SDS011;5377;43.276;26.930;2023-07-20T08:07:03;3.85;;;1.50;;
10657;SDS011;5377;43.276;26.930;2023-07-20T08:09:31;4.30;;;1.70;;
10657;SDS011;5377;43.276;26.930;2023-07-20T08:11:57;9.27;;;3.10;;
10657;SDS011;5377;43.276;26.930;2023-07-20T08:14:24;8.23;;;2.15;;
10657;SDS011;5377;43.276;26.930;2023-07-20T08:16:51;5.03;;;1.20;;
10657;SDS011;5377;43.276;26.930;2023-07-20T08:19:25;8.00;;;2.45;;
10657;SDS011;5377;43.276;26.930;2023-07-20T08:21:52;5.20;;;3.40;;
10657;SDS011;5377;43.276;26.930;2023-07-20T08:24:20;3.53;;;1.52;;
10657;SDS011;5377;43.276;26.930;2023-07-20T08:26:47;10.52;;;2.67;;
10657;SDS011;5377;43.276;26.930;2023-07-20T08:29:14;4.53;;;1.75;;
10657;SDS011;5377;43.276;26.930;2023-07-20T08:31:40;6.22;;;2.88;;
10657;SDS011;5377;43.276;26.930;2023-07-20T08:34:07;7.65;;;2.05;;
10657;SDS011;5377;43.276;26.930;2023-07-20T08:36:34;1.83;;;1.48;;
10657;SDS011;5377;43.276;26.930;2023-07-20T08:39:01;3.53;;;1.38;;
10657;SDS011;5377;43.276;26.930;2023-07-20T08:41:30;1.92;;;0.90;;
10657;SDS011;5377;43.276;26.930;2023-07-20T08:43:56;2.47;;;1.00;;
10657;SDS011;5377;43.276;26.930;2023-07-20T08:46:25;2.80;;;1.33;;
10657;SDS011;5377;43.276;26.930;2023-07-20T08:48:53;4.72;;;1.50;;
10657;SDS011;5377;43.276;26.930;2023-07-20T08:51:21;4.70;;;1.58;;
10657;SDS011;5377;43.276;26.930;2023-07-20T08:53:49;2.58;;;1.00;;
10657;SDS011;5377;43.276;26.930;2023-07-20T08:56:18;2.28;;;1.05;;
10657;SDS011;5377;43.276;26.930;2023-07-20T08:58:48;4.90;;;1.58;;
10657;SDS011;5377;43.276;26.930;2023-07-20T09:01:15;5.25;;;1.40;;
10657;SDS011;5377;43.276;26.930;2023-07-20T09:03:44;3.13;;;1.40;;
10657;SDS011;5377;43.276;26.930;2023-07-20T09:06:12;3.22;;;1.25;;
10657;SDS011;5377;43.276;26.930;2023-07-20T09:08:39;3.42;;;1.00;;
10657;SDS011;5377;43.276;26.930;2023-07-20T09:11:06;2.60;;;1.10;;
10657;SDS011;5377;43.276;26.930;2023-07-20T09:13:34;4.65;;;1.58;;
10657;SDS011;5377;43.276;26.930;2023-07-20T09:16:02;6.57;;;1.70;;
10657;SDS011;5377;43.276;26.930;2023-07-20T09:18:30;9.30;;;1.67;;
10657;SDS011;5377;43.276;26.930;2023-07-20T09:21:00;5.63;;;1.70;;
10657;SDS011;5377;43.276;26.930;2023-07-20T09:23:32;3.45;;;1.77;;
10657;SDS011;5377;43.276;26.930;2023-07-20T09:25:59;3.00;;;1.77;;
10657;SDS011;5377;43.276;26.930;2023-07-20T09:28:26;2.78;;;1.50;;
10657;SDS011;5377;43.276;26.930;2023-07-20T09:30:54;3.33;;;2.00;;
10657;SDS011;5377;43.276;26.930;2023-07-20T09:33:23;4.70;;;1.85;;
10657;SDS011;5377;43.276;26.930;2023-07-20T09:35:50;4.97;;;2.08;;
10657;SDS011;5377;43.276;26.930;2023-07-20T09:38:17;3.63;;;2.17;;
10657;SDS011;5377;43.276;26.930;2023-07-20T09:40:44;3.10;;;1.80;;
10657;SDS011;5377;43.276;26.930;2023-07-20T09:43:11;6.38;;;2.40;;
10657;SDS011;5377;43.276;26.930;2023-07-20T09:45:41;3.60;;;2.13;;
10657;SDS011;5377;43.276;26.930;2023-07-20T09:48:09;6.60;;;2.95;;
10657;SDS011;5377;43.276;26.930;2023-07-20T09:50:40;8.00;;;2.58;;
10657;SDS011;5377;43.276;26.930;2023-07-20T09:53:09;4.70;;;2.42;;
10657;SDS011;5377;43.276;26.930;2023-07-20T09:55:39;5.82;;;2.47;;
10657;SDS011;5377;43.276;26.930;2023-07-20T09:58:07;7.85;;;2.45;;
10657;SDS011;5377;43.276;26.930;2023-07-20T10:00:35;4.05;;;2.03;;
10657;SDS011;5377;43.276;26.930;2023-07-20T10:03:03;4.00;;;2.72;;
10657;SDS011;5377;43.276;26.930;2023-07-20T10:05:31;4.03;;;2.10;;
10657;SDS011;5377;43.276;26.930;2023-07-20T10:08:01;5.80;;;2.50;;
10657;SDS011;5377;43.276;26.930;2023-07-20T10:10:30;4.55;;;3.85;;
10657;SDS011;5377;43.276;26.930;2023-07-20T10:12:58;5.53;;;4.35;;
10657;SDS011;5377;43.276;26.930;2023-07-20T10:15:28;2.83;;;2.63;;
10657;SDS011;5377;43.276;26.930;2023-07-20T10:18:01;3.72;;;2.97;;
10657;SDS011;5377;43.276;26.930;2023-07-20T10:20:33;5.88;;;3.03;;
10657;SDS011;5377;43.276;26.930;2023-07-20T10:23:04;4.13;;;2.97;;
10657;SDS011;5377;43.276;26.930;2023-07-20T10:25:31;3.65;;;2.65;;
10657;SDS011;5377;43.276;26.930;2023-07-20T10:28:03;6.15;;;3.10;;
10657;SDS011;5377;43.276;26.930;2023-07-20T10:30:30;3.95;;;2.85;;
10657;SDS011;5377;43.276;26.930;2023-07-20T10:32:57;8.63;;;3.35;;
10657;SDS011;5377;43.276;26.930;2023-07-20T10:35:28;5.75;;;3.40;;
10657;SDS011;5377;43.276;26.930;2023-07-20T10:37:55;4.25;;;3.05;;
10657;SDS011;5377;43.276;26.930;2023-07-20T10:40:29;6.03;;;3.47;;
10657;SDS011;5377;43.276;26.930;2023-07-20T10:43:01;5.10;;;4.13;;
10657;SDS011;5377;43.276;26.930;2023-07-20T10:45:37;5.30;;;3.17;;
10657;SDS011;5377;43.276;26.930;2023-07-20T10:48:13;5.20;;;3.17;;
10657;SDS011;5377;43.276;26.930;2023-07-20T10:50:41;5.18;;;3.17;;
10657;SDS011;5377;43.276;26.930;2023-07-20T10:53:11;3.38;;;3.17;;
10657;SDS011;5377;43.276;26.930;2023-07-20T10:55:41;5.55;;;3.53;;
10657;SDS011;5377;43.276;26.930;2023-07-20T10:58:09;4.20;;;3.20;;
10657;SDS011;5377;43.276;26.930;2023-07-20T11:00:37;4.13;;;2.95;;
10657;SDS011;5377;43.276;26.930;2023-07-20T11:03:28;3.70;;;2.72;;
10657;SDS011;5377;43.276;26.930;2023-07-20T11:05:56;4.68;;;3.83;;
10657;SDS011;5377;43.276;26.930;2023-07-20T11:08:38;3.38;;;3.08;;
10657;SDS011;5377;43.276;26.930;2023-07-20T11:11:23;5.15;;;4.65;;
10657;SDS011;5377;43.276;26.930;2023-07-20T11:13:54;4.28;;;2.70;;
10657;SDS011;5377;43.276;26.930;2023-07-20T11:16:32;3.88;;;2.53;;
10657;SDS011;5377;43.276;26.930;2023-07-20T11:18:59;6.40;;;2.78;;
10657;SDS011;5377;43.276;26.930;2023-07-20T11:21:27;2.15;;;2.00;;
10657;SDS011;5377;43.276;26.930;2023-07-20T11:23:55;7.63;;;2.83;;
10657;SDS011;5377;43.276;26.930;2023-07-20T11:26:23;3.22;;;2.80;;
10657;SDS011;5377;43.276;26.930;2023-07-20T11:28:50;5.15;;;2.50;;
10657;SDS011;5377;43.276;26.930;2023-07-20T11:31:17;4.78;;;2.47;;
10657;SDS011;5377;43.276;26.930;2023-07-20T11:33:44;3.65;;;2.58;;
10657;SDS011;5377;43.276;26.930;2023-07-20T11:36:12;5.20;;;3.20;;
10657;SDS011;5377;43.276;26.930;2023-07-20T11:38:40;2.78;;;2.55;;
10657;SDS011;5377;43.276;26.930;2023-07-20T11:41:08;3.33;;;2.90;;
10657;SDS011;5377;43.276;26.930;2023-07-20T11:43:37;4.38;;;2.83;;
10657;SDS011;5377;43.276;26.930;2023-07-20T11:46:05;5.38;;;2.95;;
10657;SDS011;5377;43.276;26.930;2023-07-20T11:48:32;3.50;;;2.42;;
10657;SDS011;5377;43.276;26.930;2023-07-20T11:50:59;3.15;;;2.90;;
10657;SDS011;5377;43.276;26.930;2023-07-20T11:53:26;3.70;;;3.03;;
10657;SDS011;5377;43.276;26.930;2023-07-20T11:55:53;6.70;;;3.53;;
10657;SDS011;5377;43.276;26.930;2023-07-20T11:58:20;7.90;;;2.83;;
10657;SDS011;5377;43.276;26.930;2023-07-20T12:00:48;3.80;;;2.95;;
10657;SDS011;5377;43.276;26.930;2023-07-20T12:03:15;2.65;;;2.40;;
10657;SDS011;5377;43.276;26.930;2023-07-20T12:05:42;3.70;;;2.28;;
10657;SDS011;5377;43.276;26.930;2023-07-20T12:08:09;2.45;;;2.22;;
10657;SDS011;5377;43.276;26.930;2023-07-20T12:10:38;2.92;;;2.60;;
10657;SDS011;5377;43.276;26.930;2023-07-20T12:13:09;4.20;;;2.90;;
10657;SDS011;5377;43.276;26.930;2023-07-20T12:15:37;2.47;;;2.17;;
10657;SDS011;5377;43.276;26.930;2023-07-20T12:18:07;2.65;;;2.25;;
10657;SDS011;5377;43.276;26.930;2023-07-20T12:20:35;4.10;;;2.70;;
10657;SDS011;5377;43.276;26.930;2023-07-20T12:23:03;2.80;;;2.45;;
10657;SDS011;5377;43.276;26.930;2023-07-20T12:25:36;3.60;;;2.45;;
10657;SDS011;5377;43.276;26.930;2023-07-20T12:28:04;5.63;;;2.67;;
10657;SDS011;5377;43.276;26.930;2023-07-20T12:30:31;3.90;;;2.95;;
10657;SDS011;5377;43.276;26.930;2023-07-20T12:32:58;3.13;;;2.80;;
10657;SDS011;5377;43.276;26.930;2023-07-20T12:35:27;2.88;;;2.67;;
10657;SDS011;5377;43.276;26.930;2023-07-20T12:37:54;6.85;;;3.95;;
10657;SDS011;5377;43.276;26.930;2023-07-20T12:40:21;2.47;;;2.33;;
10657;SDS011;5377;43.276;26.930;2023-07-20T12:42:48;4.68;;;3.35;;
10657;SDS011;5377;43.276;26.930;2023-07-20T12:45:15;5.13;;;3.40;;
10657;SDS011;5377;43.276;26.930;2023-07-20T12:47:41;4.53;;;3.35;;
10657;SDS011;5377;43.276;26.930;2023-07-20T12:50:09;4.35;;;3.45;;
10657;SDS011;5377;43.276;26.930;2023-07-20T12:52:38;6.88;;;3.47;;
10657;SDS011;5377;43.276;26.930;2023-07-20T12:55:06;6.82;;;3.13;;
10657;SDS011;5377;43.276;26.930;2023-07-20T12:57:34;6.57;;;3.72;;
10657;SDS011;5377;43.276;26.930;2023-07-20T13:00:01;5.28;;;3.00;;
10657;SDS011;5377;43.276;26.930;2023-07-20T13:02:29;5.60;;;3.42;;
10657;SDS011;5377;43.276;26.930;2023-07-20T13:04:56;3.53;;;3.00;;
10657;SDS011;5377;43.276;26.930;2023-07-20T13:07:29;3.55;;;3.08;;
10657;SDS011;5377;43.276;26.930;2023-07-20T13:09:58;4.60;;;3.83;;
10657;SDS011;5377;43.276;26.930;2023-07-20T13:12:25;3.95;;;3.63;;
10657;SDS011;5377;43.276;26.930;2023-07-20T13:14:52;4.07;;;2.97;;
10657;SDS011;5377;43.276;26.930;2023-07-20T13:17:20;4.57;;;3.88;;
10657;SDS011;5377;43.276;26.930;2023-07-20T13:19:47;6.68;;;3.97;;
10657;SDS011;5377;43.276;26.930;2023-07-20T13:22:14;3.47;;;3.17;;
10657;SDS011;5377;43.276;26.930;2023-07-20T13:24:41;3.90;;;3.40;;
10657;SDS011;5377;43.276;26.930;2023-07-20T13:27:09;5.00;;;3.55;;
10657;SDS011;5377;43.276;26.930;2023-07-20T13:29:36;6.93;;;3.45;;
10657;SDS011;5377;43.276;26.930;2023-07-20T13:32:03;4.15;;;3.45;;
10657;SDS011;5377;43.276;26.930;2023-07-20T13:34:31;5.03;;;3.92;;
10657;SDS011;5377;43.276;26.930;2023-07-20T13:36:58;4.38;;;3.92;;
10657;SDS011;5377;43.276;26.930;2023-07-20T13:39:25;4.70;;;3.63;;
10657;SDS011;5377;43.276;26.930;2023-07-20T13:41:52;6.88;;;4.15;;
10657;SDS011;5377;43.276;26.930;2023-07-20T13:44:21;4.25;;;3.85;;
10657;SDS011;5377;43.276;26.930;2023-07-20T13:46:48;3.78;;;3.25;;
10657;SDS011;5377;43.276;26.930;2023-07-20T13:49:14;4.75;;;3.45;;
10657;SDS011;5377;43.276;26.930;2023-07-20T13:51:41;5.28;;;3.28;;
10657;SDS011;5377;43.276;26.930;2023-07-20T13:54:09;3.97;;;3.58;;
10657;SDS011;5377;43.276;26.930;2023-07-20T13:56:36;3.40;;;3.10;;
10657;SDS011;5377;43.276;26.930;2023-07-20T13:59:03;5.47;;;3.10;;
10657;SDS011;5377;43.276;26.930;2023-07-20T14:01:31;4.57;;;3.05;;
10657;SDS011;5377;43.276;26.930;2023-07-20T14:03:59;3.53;;;3.08;;
10657;SDS011;5377;43.276;26.930;2023-07-20T14:06:29;4.38;;;2.97;;
10657;SDS011;5377;43.276;26.930;2023-07-20T14:08:57;7.22;;;3.80;;
10657;SDS011;5377;43.276;26.930;2023-07-20T14:11:24;3.38;;;3.08;;
10657;SDS011;5377;43.276;26.930;2023-07-20T14:13:52;3.72;;;3.15;;
10657;SDS011;5377;43.276;26.930;2023-07-20T14:16:19;4.07;;;3.33;;
10657;SDS011;5377;43.276;26.930;2023-07-20T14:18:48;3.78;;;2.85;;
10657;SDS011;5377;43.276;26.930;2023-07-20T14:21:15;5.25;;;3.63;;
10657;SDS011;5377;43.276;26.930;2023-07-20T14:23:44;7.85;;;4.05;;
10657;SDS011;5377;43.276;26.930;2023-07-20T14:26:11;7.72;;;4.05;;
10657;SDS011;5377;43.276;26.930;2023-07-20T14:28:38;5.65;;;4.75;;
10657;SDS011;5377;43.276;26.930;2023-07-20T14:31:05;3.65;;;3.33;;
10657;SDS011;5377;43.276;26.930;2023-07-20T14:33:32;8.27;;;3.90;;
10657;SDS011;5377;43.276;26.930;2023-07-20T14:36:00;5.45;;;3.00;;
10657;SDS011;5377;43.276;26.930;2023-07-20T14:38:27;3.00;;;2.85;;
10657;SDS011;5377;43.276;26.930;2023-07-20T14:40:54;5.22;;;3.30;;
10657;SDS011;5377;43.276;26.930;2023-07-20T14:43:21;3.22;;;2.92;;
10657;SDS011;5377;43.276;26.930;2023-07-20T14:45:48;8.38;;;3.40;;
10657;SDS011;5377;43.276;26.930;2023-07-20T14:48:15;3.95;;;2.63;;
10657;SDS011;5377;43.276;26.930;2023-07-20T14:50:41;6.05;;;2.70;;
10657;SDS011;5377;43.276;26.930;2023-07-20T14:53:12;5.43;;;2.63;;